Time;durP1;ratioP1;P1;durP2;ratioP2;P2;SDS_P1;SDS_P2;PMS_P1;PMS_P2;Temp;Humidity;BMP_temperature;BMP_pressure;BME280_temperature;BME280_humidity;BME280_pressure;Samples;Min_cycle;Max_cycle;Signal;HPM_P1;HPM_P2
2021/08/21 00:01:28;;;;;;;6.72;5.20;;;20.30;74.50;;;;;;5098250;28;20472;-70
2021/08/21 00:03:54;;;;;;;6.43;4.75;;;20.30;74.40;;;;;;5091363;28;20044;-69
2021/08/21 00:06:20;;;;;;;6.22;4.65;;;20.30;74.40;;;;;;5077732;28;20047;-69
2021/08/21 00:08:46;;;;;;;5.93;4.55;;;20.30;74.40;;;;;;5077459;28;20334;-69
2021/08/21 00:11:11;;;;;;;7.35;4.88;;;20.30;74.40;;;;;;5078060;28;20048;-69
2021/08/21 00:13:37;;;;;;;5.88;4.80;;;20.30;74.40;;;;;;5078147;28;20127;-69
2021/08/21 00:16:03;;;;;;;6.63;5.32;;;20.30;74.40;;;;;;5077629;28;20339;-69
2021/08/21 00:18:29;;;;;;;6.55;4.68;;;20.30;74.50;;;;;;5078237;28;20067;-69
2021/08/21 00:20:55;;;;;;;5.95;5.35;;;20.30;74.50;;;;;;5078287;28;20407;-69
2021/08/21 00:23:21;;;;;;;7.15;5.20;;;20.30;74.40;;;;;;5077523;28;20054;-69
2021/08/21 00:25:46;;;;;;;6.18;4.97;;;20.20;74.40;;;;;;5077646;28;20425;-69
2021/08/21 00:28:13;;;;;;;6.65;5.38;;;20.30;74.40;;;;;;5077781;28;20109;-69
2021/08/21 00:30:39;;;;;;;7.07;5.40;;;20.30;74.40;;;;;;5077458;28;20048;-69
2021/08/21 00:33:05;;;;;;;6.35;5.20;;;20.30;74.40;;;;;;5089732;28;20466;-69
2021/08/21 00:35:30;;;;;;;8.27;5.60;;;20.30;74.30;;;;;;5097690;28;20428;-69
2021/08/21 00:37:56;;;;;;;6.57;5.65;;;20.20;74.30;;;;;;5097555;28;20039;-69
2021/08/21 00:40:22;;;;;;;7.40;5.72;;;20.30;74.40;;;;;;5097393;28;20062;-69
2021/08/21 00:42:51;;;;;;;6.85;5.53;;;20.20;74.30;;;;;;5096559;28;20051;-69
2021/08/21 00:45:18;;;;;;;6.13;5.43;;;20.20;74.20;;;;;;5097426;28;20123;-69
2021/08/21 00:47:44;;;;;;;5.97;5.38;;;20.20;74.30;;;;;;5097035;28;20040;-69
2021/08/21 00:50:11;;;;;;;6.45;5.35;;;20.20;74.30;;;;;;5097482;28;20050;-69
2021/08/21 00:52:38;;;;;;;7.03;5.40;;;20.20;74.20;;;;;;5097830;28;20048;-69
2021/08/21 00:55:04;;;;;;;7.05;4.90;;;20.20;74.20;;;;;;5097002;28;20044;-69
2021/08/21 00:57:30;;;;;;;7.05;5.38;;;20.20;74.20;;;;;;5097004;28;20438;-69
2021/08/21 00:59:57;;;;;;;6.82;5.43;;;20.20;74.20;;;;;;5096861;28;20126;-69
2021/08/21 01:02:22;;;;;;;7.25;5.75;;;20.20;74.10;;;;;;5090236;28;20132;-68
2021/08/21 01:04:55;;;;;;;8.25;5.50;;;20.20;74.10;;;;;;5076347;28;20048;-69
2021/08/21 01:07:27;;;;;;;8.20;5.65;;;20.20;74.00;;;;;;5076385;28;20123;-69
2021/08/21 01:09:53;;;;;;;7.90;6.00;;;20.20;74.00;;;;;;5076695;28;20060;-69
2021/08/21 01:12:20;;;;;;;6.95;4.93;;;20.20;74.00;;;;;;5077213;28;20391;-69
2021/08/21 01:14:48;;;;;;;6.50;5.45;;;20.10;74.00;;;;;;5076556;28;20075;-68
2021/08/21 01:17:16;;;;;;;6.78;5.45;;;20.10;73.90;;;;;;5076423;28;20040;-69
2021/08/21 01:19:44;;;;;;;6.28;5.05;;;20.10;73.90;;;;;;5076307;28;20392;-69
2021/08/21 01:22:13;;;;;;;5.80;4.60;;;20.10;73.90;;;;;;5076580;28;20040;-68
2021/08/21 01:24:39;;;;;;;6.97;5.03;;;20.10;73.90;;;;;;5076642;28;20079;-68
2021/08/21 01:27:06;;;;;;;7.65;5.38;;;20.10;73.90;;;;;;5076253;28;20106;-69
2021/08/21 01:29:33;;;;;;;6.45;5.57;;;20.10;73.90;;;;;;5076306;28;20412;-69
2021/08/21 01:31:59;;;;;;;6.80;5.38;;;20.10;73.90;;;;;;5079518;28;20126;-69
2021/08/21 01:34:25;;;;;;;6.00;5.22;;;20.10;73.80;;;;;;5096173;28;20052;-69
2021/08/21 01:36:51;;;;;;;7.40;5.30;;;20.10;73.80;;;;;;5096155;28;20044;-68
2021/08/21 01:39:18;;;;;;;7.20;4.70;;;20.10;73.80;;;;;;5096337;28;20032;-69
2021/08/21 01:41:44;;;;;;;5.57;5.07;;;20.10;73.80;;;;;;5096230;28;20032;-69
2021/08/21 01:44:15;;;;;;;5.93;5.25;;;20.00;73.70;;;;;;5096365;28;20044;-69
2021/08/21 01:46:41;;;;;;;6.80;5.93;;;20.10;73.70;;;;;;5096223;28;20043;-69
2021/08/21 01:49:11;;;;;;;6.05;5.10;;;20.10;73.70;;;;;;5096423;28;20115;-69
2021/08/21 01:51:46;;;;;;;6.15;5.53;;;20.10;73.80;;;;;;5095921;28;20400;-69
2021/08/21 01:54:20;;;;;;;6.88;5.38;;;20.10;73.70;;;;;;5095751;28;20036;-69
2021/08/21 01:56:46;;;;;;;;;;;20.10;73.80;;;;;;5096172;28;20040;-70
2021/08/21 01:59:33;;;;;;;5.95;5.35;;;20.10;73.80;;;;;;5096628;28;19916;-69
2021/08/21 02:01:59;;;;;;;6.75;5.60;;;20.10;73.80;;;;;;5090254;28;20036;-69
2021/08/21 02:04:26;;;;;;;7.63;5.90;;;20.00;73.90;;;;;;5075743;28;20427;-69
2021/08/21 02:06:52;;;;;;;6.28;5.50;;;20.00;73.80;;;;;;5075403;28;20040;-69
2021/08/21 02:09:21;;;;;;;7.72;5.03;;;20.00;73.90;;;;;;5076316;28;20040;-69
2021/08/21 02:11:48;;;;;;;7.18;5.40;;;20.00;73.90;;;;;;5075673;28;20090;-68
2021/08/21 02:14:16;;;;;;;6.25;5.47;;;20.00;73.90;;;;;;5075776;28;20055;-68
2021/08/21 02:16:43;;;;;;;6.38;5.30;;;20.00;73.90;;;;;;5075722;28;20040;-69
2021/08/21 02:19:09;;;;;;;7.20;5.10;;;20.00;73.90;;;;;;5075449;28;20056;-69
2021/08/21 02:21:34;;;;;;;8.02;5.60;;;20.00;73.90;;;;;;5075507;28;20045;-69
2021/08/21 02:24:01;;;;;;;7.22;5.40;;;20.00;73.90;;;;;;5075462;28;20066;-69
2021/08/21 02:26:27;;;;;;;6.70;5.47;;;20.00;73.90;;;;;;5075043;28;20431;-69
2021/08/21 02:28:54;;;;;;;5.63;4.95;;;20.00;73.90;;;;;;5075789;28;20037;-69
2021/08/21 02:31:25;;;;;;;7.13;6.25;;;20.00;73.90;;;;;;5075148;28;20052;-69
2021/08/21 02:33:51;;;;;;;7.47;6.20;;;20.00;74.00;;;;;;5075366;28;20051;-69
2021/08/21 02:36:17;;;;;;;6.20;5.05;;;20.00;73.90;;;;;;5075405;28;20037;-69
2021/08/21 02:38:45;;;;;;;6.32;5.72;;;20.00;73.90;;;;;;5075165;28;20090;-69
2021/08/21 02:41:12;;;;;;;6.55;5.30;;;20.00;73.90;;;;;;5075454;28;20033;-69
2021/08/21 02:43:38;;;;;;;6.20;5.47;;;20.00;73.90;;;;;;5074604;28;20463;-69
2021/08/21 02:46:04;;;;;;;6.20;5.60;;;20.00;73.90;;;;;;5075330;28;20068;-69
2021/08/21 02:48:30;;;;;;;5.88;5.28;;;20.00;73.90;;;;;;5075196;28;20037;-68
2021/08/21 02:50:56;;;;;;;5.93;5.18;;;20.00;73.90;;;;;;5075204;28;20113;-68
2021/08/21 02:53:22;;;;;;;6.15;5.10;;;20.00;73.90;;;;;;5075214;28;20048;-69
2021/08/21 02:55:48;;;;;;;6.03;5.32;;;20.00;73.90;;;;;;5075075;28;20072;-69
2021/08/21 02:58:13;;;;;;;6.55;5.38;;;20.00;73.90;;;;;;5075147;28;20051;-68
2021/08/21 03:00:41;;;;;;;6.68;5.63;;;20.00;73.90;;;;;;5074962;28;20463;-69
2021/08/21 03:03:08;;;;;;;6.20;5.40;;;20.00;73.90;;;;;;5087996;28;20112;-69
2021/08/21 03:05:34;;;;;;;7.20;5.93;;;20.00;74.00;;;;;;5095305;28;20044;-70
2021/08/21 03:07:59;;;;;;;7.55;5.80;;;20.00;74.00;;;;;;5098907;28;20166;-69
2021/08/21 03:10:25;;;;;;;7.00;5.60;;;20.00;74.10;;;;;;5099055;28;20040;-69
2021/08/21 03:12:51;;;;;;;9.07;5.63;;;20.00;74.10;;;;;;5099098;28;20044;-68
2021/08/21 03:15:17;;;;;;;8.25;5.43;;;20.00;74.10;;;;;;5099243;28;20040;-69
2021/08/21 03:17:43;;;;;;;6.90;5.30;;;20.00;74.10;;;;;;5099194;28;20078;-69
2021/08/21 03:20:09;;;;;;;7.28;5.35;;;20.00;74.10;;;;;;5099396;28;20044;-69
2021/08/21 03:22:35;;;;;;;6.68;6.00;;;20.00;74.10;;;;;;5099792;28;20056;-69
2021/08/21 03:25:01;;;;;;;5.95;5.35;;;19.90;74.00;;;;;;5098767;28;20051;-69
2021/08/21 03:27:27;;;;;;;7.47;5.20;;;19.90;74.00;;;;;;5098707;28;20040;-69
2021/08/21 03:29:52;;;;;;;5.88;5.20;;;19.90;74.00;;;;;;5098959;28;20134;-69
2021/08/21 03:32:19;;;;;;;6.82;5.57;;;19.90;74.10;;;;;;5091900;28;20106;-69
2021/08/21 03:34:45;;;;;;;6.70;5.47;;;19.90;74.10;;;;;;5078610;28;20048;-69
2021/08/21 03:37:12;;;;;;;8.27;5.68;;;19.90;74.10;;;;;;5078583;28;20044;-69
2021/08/21 03:39:38;;;;;;;6.85;5.25;;;19.90;74.00;;;;;;5078550;28;20106;-69
2021/08/21 03:42:06;;;;;;;6.93;5.45;;;19.90;74.10;;;;;;5078242;28;20048;-69
2021/08/21 03:44:32;;;;;;;6.38;5.28;;;19.90;74.10;;;;;;5078371;28;20040;-68
2021/08/21 03:46:59;;;;;;;7.45;5.68;;;19.90;74.10;;;;;;5078243;28;20040;-68
2021/08/21 03:49:24;;;;;;;6.10;5.43;;;19.90;74.10;;;;;;5078439;28;20040;-69
2021/08/21 03:51:50;;;;;;;8.02;5.65;;;19.90;74.10;;;;;;5078729;28;20055;-69
2021/08/21 03:54:17;;;;;;;6.95;6.00;;;19.90;74.10;;;;;;5078327;28;20040;-68
2021/08/21 03:56:43;;;;;;;7.53;5.85;;;19.90;74.20;;;;;;5078191;28;20384;-69
2021/08/21 03:59:09;;;;;;;7.85;5.80;;;19.90;74.20;;;;;;5078302;28;20170;-68
2021/08/21 04:01:35;;;;;;;8.20;6.15;;;19.90;74.20;;;;;;5078467;28;20123;-68
2021/08/21 04:04:01;;;;;;;8.15;5.82;;;19.90;74.20;;;;;;5097451;28;20047;-70
2021/08/21 04:06:27;;;;;;;8.60;5.80;;;19.90;74.20;;;;;;5097927;28;20040;-69
2021/08/21 04:08:53;;;;;;;7.82;5.80;;;19.90;74.20;;;;;;5097672;28;20050;-69
2021/08/21 04:11:19;;;;;;;8.10;6.25;;;19.90;74.20;;;;;;5098368;28;20047;-69
2021/08/21 04:13:44;;;;;;;7.03;5.55;;;19.90;74.20;;;;;;5098258;28;20047;-69
2021/08/21 04:16:11;;;;;;;7.95;6.15;;;19.90;74.40;;;;;;5097862;28;20419;-69
2021/08/21 04:18:36;;;;;;;6.40;5.68;;;19.90;74.20;;;;;;5097787;28;20131;-69
2021/08/21 04:21:03;;;;;;;7.03;5.60;;;19.90;74.30;;;;;;5097887;28;20115;-69
2021/08/21 04:23:29;;;;;;;7.07;6.05;;;19.90;74.30;;;;;;5097821;28;20441;-69
2021/08/21 04:25:59;;;;;;;6.30;5.47;;;19.90;74.30;;;;;;5097853;28;20062;-69
2021/08/21 04:28:29;;;;;;;8.48;6.78;;;19.90;74.40;;;;;;5098209;28;20040;-69
2021/08/21 04:30:56;;;;;;;8.63;6.15;;;19.90;74.40;;;;;;5090252;28;20425;-69
2021/08/21 04:33:23;;;;;;;8.70;6.43;;;19.90;74.40;;;;;;5086281;28;20059;-69
2021/08/21 04:35:50;;;;;;;8.18;6.47;;;19.90;74.40;;;;;;5109968;28;20372;-68
2021/08/21 04:38:16;;;;;;;7.65;6.07;;;19.90;74.40;;;;;;5116510;28;20053;-68
2021/08/21 04:40:44;;;;;;;6.55;5.60;;;19.80;74.40;;;;;;5117774;28;20330;-69
2021/08/21 04:43:11;;;;;;;7.93;6.68;;;19.90;74.50;;;;;;5117983;28;20365;-69
2021/08/21 04:45:37;;;;;;;7.25;6.00;;;19.80;74.50;;;;;;5117803;28;20046;-69
2021/08/21 04:48:03;;;;;;;9.05;7.45;;;19.80;74.50;;;;;;5111877;28;20439;-68
2021/08/21 04:50:29;;;;;;;7.88;6.28;;;19.80;74.60;;;;;;5084590;28;20040;-70
2021/08/21 04:52:55;;;;;;;10.40;6.82;;;19.80;74.60;;;;;;5077051;28;20040;-69
2021/08/21 04:55:21;;;;;;;8.77;6.88;;;19.80;74.60;;;;;;5076933;28;20041;-68
2021/08/21 04:57:49;;;;;;;8.43;7.50;;;19.80;74.70;;;;;;5076923;28;20036;-71
2021/08/21 05:00:16;;;;;;;9.63;6.82;;;19.80;74.80;;;;;;5076656;28;20444;-68
2021/08/21 05:02:41;;;;;;;8.88;7.18;;;19.90;74.90;;;;;;5076940;28;20044;-69
2021/08/21 05:05:08;;;;;;;7.25;6.53;;;19.90;75.00;;;;;;5076968;28;20158;-70
2021/08/21 05:07:34;;;;;;;9.57;7.20;;;19.90;74.90;;;;;;5076465;28;20041;-70
2021/08/21 05:09:59;;;;;;;26.02;7.88;;;19.90;75.10;;;;;;5076573;28;20049;-72
2021/08/21 05:12:25;;;;;;;8.82;7.55;;;19.90;75.20;;;;;;5076621;28;20443;-68
2021/08/21 05:14:51;;;;;;;9.05;6.72;;;20.00;75.20;;;;;;5076738;28;20041;-70
2021/08/21 05:17:17;;;;;;;10.38;7.82;;;20.00;75.20;;;;;;5076434;28;20040;-70
2021/08/21 05:19:51;;;;;;;11.27;7.68;;;20.00;75.20;;;;;;5076237;28;20052;-71
2021/08/21 05:22:26;;;;;;;10.02;7.13;;;20.00;75.30;;;;;;5076429;28;20386;-70
2021/08/21 05:24:52;;;;;;;11.75;6.90;;;20.00;75.30;;;;;;5077034;28;20062;-73
2021/08/21 05:27:20;;;;;;;14.93;11.52;;;20.00;75.30;;;;;;5076428;28;20047;-74
2021/08/21 05:29:46;;;;;;;13.77;11.27;;;20.00;75.50;;;;;;5076275;28;20139;-71
2021/08/21 05:32:12;;;;;;;12.00;10.55;;;20.00;75.70;;;;;;5083911;28;20040;-70
2021/08/21 05:34:38;;;;;;;12.90;9.93;;;19.90;75.80;;;;;;5096081;28;20443;-73
2021/08/21 05:37:04;;;;;;;14.70;10.75;;;19.90;76.10;;;;;;5096386;28;20113;-74
2021/08/21 05:39:34;;;;;;;12.77;10.48;;;19.90;76.10;;;;;;5096608;28;20044;-73
2021/08/21 05:42:00;;;;;;;13.07;10.75;;;19.90;76.10;;;;;;5096454;28;20048;-73
2021/08/21 05:44:27;;;;;;;12.82;10.40;;;19.90;76.20;;;;;;5096509;28;20105;-73
2021/08/21 05:46:53;;;;;;;13.13;11.27;;;19.90;76.20;;;;;;5095987;28;20093;-74
2021/08/21 05:49:18;;;;;;;14.27;11.65;;;19.80;76.10;;;;;;5096650;28;20052;-73
2021/08/21 05:51:44;;;;;;;13.48;11.70;;;19.80;76.20;;;;;;5096165;28;20056;-74
2021/08/21 05:54:10;;;;;;;15.00;12.55;;;19.80;76.40;;;;;;5096385;28;20051;-74
2021/08/21 05:56:36;;;;;;;13.68;11.52;;;19.80;77.20;;;;;;5095506;28;20149;-74
2021/08/21 05:59:02;;;;;;;18.52;13.20;;;19.80;76.70;;;;;;5095896;28;20430;-75
2021/08/21 06:01:29;;;;;;;16.55;13.48;;;19.80;77.50;;;;;;5092094;28;20144;-74
2021/08/21 06:03:56;;;;;;;17.17;13.48;;;19.80;77.10;;;;;;5094711;28;20465;-73
2021/08/21 06:06:23;;;;;;;16.10;13.63;;;19.80;77.10;;;;;;5095175;28;20111;-74
2021/08/21 06:08:49;;;;;;;18.65;13.90;;;19.80;77.10;;;;;;5095013;28;20120;-73
2021/08/21 06:11:15;;;;;;;18.13;15.18;;;19.80;77.20;;;;;;5095155;28;20085;-74
2021/08/21 06:13:41;;;;;;;18.45;14.98;;;19.80;77.30;;;;;;5095700;28;20074;-73
2021/08/21 06:16:07;;;;;;;17.95;15.45;;;19.80;77.40;;;;;;5094765;28;20040;-72
2021/08/21 06:18:33;;;;;;;18.92;16.02;;;19.80;77.60;;;;;;5095299;28;20054;-73
2021/08/21 06:21:03;;;;;;;20.35;16.67;;;19.80;77.80;;;;;;5090972;28;20447;-72
2021/08/21 06:23:31;;;;;;;19.75;15.75;;;19.80;78.00;;;;;;5094596;28;20415;-74
2021/08/21 06:25:56;;;;;;;20.38;16.45;;;19.70;77.90;;;;;;5094502;28;20036;-74
2021/08/21 06:28:22;;;;;;;21.55;17.45;;;19.70;78.00;;;;;;5095095;28;20330;-74
2021/08/21 06:30:48;;;;;;;24.48;18.73;;;19.70;78.30;;;;;;5094540;28;20042;-72
2021/08/21 06:33:14;;;;;;;21.98;17.23;;;19.70;78.50;;;;;;5093604;28;20040;-73
2021/08/21 06:35:40;;;;;;;19.38;16.23;;;19.70;78.60;;;;;;5093221;28;20389;-69
2021/08/21 06:38:06;;;;;;;20.20;17.08;;;19.60;78.50;;;;;;5094525;28;20048;-69
2021/08/21 06:40:32;;;;;;;23.05;18.13;;;19.60;78.70;;;;;;5094134;28;20442;-69
2021/08/21 06:42:58;;;;;;;27.38;19.88;;;19.60;78.90;;;;;;5095569;28;20040;-69
2021/08/21 06:45:23;;;;;;;24.98;18.67;;;19.60;79.10;;;;;;5075624;28;20032;-69
2021/08/21 06:47:49;;;;;;;25.35;19.52;;;19.60;79.30;;;;;;5076627;28;20036;-71
2021/08/21 06:50:16;;;;;;;26.10;20.55;;;19.60;79.50;;;;;;5088261;28;20055;-71
2021/08/21 06:52:41;;;;;;;27.13;19.75;;;19.60;79.70;;;;;;5092411;28;20035;-72
2021/08/21 06:55:07;;;;;;;24.42;20.60;;;19.60;79.80;;;;;;5094285;28;20068;-73
2021/08/21 06:57:33;;;;;;;29.10;20.58;;;19.60;79.90;;;;;;5094382;28;20072;-74
2021/08/21 06:59:59;;;;;;;28.13;21.13;;;19.50;80.10;;;;;;5054598;28;1124412;-74
2021/08/21 07:02:26;;;;;;;38.28;23.33;;;19.60;80.10;;;;;;5094301;28;20449;-72
2021/08/21 07:04:51;;;;;;;27.13;20.95;;;19.70;80.40;;;;;;5095341;28;20074;-73
2021/08/21 07:07:17;;;;;;;28.38;21.70;;;19.70;80.40;;;;;;5095274;28;20040;-73
2021/08/21 07:09:43;;;;;;;32.13;21.73;;;19.70;80.50;;;;;;5095194;28;20036;-73
2021/08/21 07:12:09;;;;;;;33.30;23.85;;;19.70;80.30;;;;;;5094835;28;20059;-73
2021/08/21 07:14:35;;;;;;;32.42;23.88;;;19.70;80.60;;;;;;5095176;28;20044;-73
2021/08/21 07:17:00;;;;;;;35.03;23.92;;;19.70;80.90;;;;;;5094601;28;20067;-73
2021/08/21 07:19:26;;;;;;;30.33;23.30;;;19.70;81.00;;;;;;5095129;28;20051;-73
2021/08/21 07:21:53;;;;;;;34.78;24.05;;;19.80;81.30;;;;;;5095523;28;20036;-72
2021/08/21 07:24:22;;;;;;;33.15;24.45;;;19.80;81.30;;;;;;5095074;28;20051;-74
2021/08/21 07:26:48;;;;;;;30.77;22.58;;;19.80;81.40;;;;;;5094708;28;20044;-75
2021/08/21 07:29:14;;;;;;;30.02;22.58;;;19.80;81.50;;;;;;5094890;28;20032;-75
2021/08/21 07:31:40;;;;;;;31.23;23.25;;;19.80;81.40;;;;;;5090946;28;20093;-74
2021/08/21 07:34:06;;;;;;;31.30;22.75;;;19.80;81.20;;;;;;5095532;28;20055;-73
2021/08/21 07:36:32;;;;;;;31.50;23.27;;;19.80;81.20;;;;;;5095289;28;20138;-74
2021/08/21 07:38:58;;;;;;;32.08;24.13;;;19.80;81.10;;;;;;5094731;28;20082;-74
2021/08/21 07:41:24;;;;;;;27.33;20.63;;;19.80;81.00;;;;;;5095286;28;20043;-75
2021/08/21 07:43:49;;;;;;;29.48;22.52;;;19.80;80.90;;;;;;5095166;28;20055;-74
2021/08/21 07:46:15;;;;;;;29.73;23.05;;;19.90;81.00;;;;;;5094690;28;20486;-74
2021/08/21 07:48:41;;;;;;;32.13;23.98;;;19.90;80.90;;;;;;5094659;28;20040;-74
2021/08/21 07:51:07;;;;;;;34.67;24.80;;;19.90;81.00;;;;;;5095291;28;20048;-73
2021/08/21 07:53:34;;;;;;;35.00;23.83;;;19.90;81.00;;;;;;5096906;28;20127;-73
2021/08/21 07:56:06;;;;;;;34.10;24.58;;;19.90;81.00;;;;;;5097776;28;20040;-75
2021/08/21 07:58:33;;;;;;;30.10;23.45;;;19.90;80.90;;;;;;5098105;28;20051;-74
2021/08/21 08:00:59;;;;;;;30.08;22.60;;;19.90;80.80;;;;;;5093145;28;20049;-74
2021/08/21 08:03:25;;;;;;;29.50;23.88;;;19.90;80.70;;;;;;5096656;28;20104;-74
2021/08/21 08:05:51;;;;;;;28.63;23.40;;;19.90;80.70;;;;;;5098676;28;20119;-75
2021/08/21 08:08:17;;;;;;;31.58;24.60;;;19.90;80.70;;;;;;5079690;28;20450;-75
2021/08/21 08:10:43;;;;;;;28.80;22.63;;;20.00;80.60;;;;;;5098249;28;20169;-73
2021/08/21 08:13:09;;;;;;;32.20;26.40;;;20.00;80.60;;;;;;5097973;28;20515;-74
2021/08/21 08:15:35;;;;;;;29.65;24.85;;;20.00;80.60;;;;;;5091170;28;20040;-74
2021/08/21 08:18:05;;;;;;;29.40;24.05;;;20.00;80.50;;;;;;5082254;28;20067;-72
2021/08/21 08:20:31;;;;;;;31.15;25.38;;;20.00;81.00;;;;;;5098065;28;20132;-73
2021/08/21 08:22:57;;;;;;;29.98;24.08;;;20.00;80.30;;;;;;5096904;28;20439;-72
2021/08/21 08:25:23;;;;;;;28.80;23.80;;;20.00;80.20;;;;;;5098460;28;20161;-70
2021/08/21 08:27:50;;;;;;;29.67;24.73;;;20.00;80.20;;;;;;5097403;28;20336;-73
2021/08/21 08:30:16;;;;;;;28.83;24.45;;;20.00;80.10;;;;;;5097706;28;20040;-72
2021/08/21 08:32:42;;;;;;;27.67;23.35;;;20.00;80.00;;;;;;5085203;28;20344;-75
2021/08/21 08:35:10;;;;;;;28.58;23.33;;;20.00;80.50;;;;;;5077200;28;20133;-73
2021/08/21 08:37:37;;;;;;;30.60;25.33;;;20.00;79.90;;;;;;5076953;28;20113;-74
2021/08/21 08:40:04;;;;;;;30.00;23.83;;;20.10;80.00;;;;;;5076839;28;20045;-71
2021/08/21 08:42:31;;;;;;;27.60;22.60;;;20.00;79.90;;;;;;5077017;28;20128;-71
2021/08/21 08:44:57;;;;;;;26.00;21.77;;;20.00;79.90;;;;;;5077121;28;20067;-71
2021/08/21 08:47:23;;;;;;;24.05;21.08;;;20.10;80.00;;;;;;5077214;28;20428;-72
2021/08/21 08:49:50;;;;;;;25.08;21.23;;;20.10;79.80;;;;;;5076995;28;20040;-72
2021/08/21 08:52:18;;;;;;;23.52;20.92;;;20.10;79.70;;;;;;5077046;28;20040;-71
2021/08/21 08:54:44;;;;;;;23.60;20.33;;;20.10;79.50;;;;;;5076876;28;20040;-72
2021/08/21 08:57:17;;;;;;;21.95;17.83;;;20.20;79.50;;;;;;5076976;28;20044;-71
2021/08/21 08:59:43;;;;;;;22.55;19.13;;;20.20;79.40;;;;;;5076588;28;20044;-71
2021/08/21 09:02:09;;;;;;;21.17;18.05;;;20.20;79.30;;;;;;5077884;28;20056;-71
2021/08/21 09:04:35;;;;;;;20.80;18.60;;;20.20;79.30;;;;;;5075621;28;20108;-72
2021/08/21 09:07:01;;;;;;;20.55;17.60;;;20.30;79.20;;;;;;5076894;28;20048;-77
2021/08/21 09:09:26;;;;;;;20.48;16.05;;;20.30;79.20;;;;;;5076652;28;20465;-74
2021/08/21 09:11:55;;;;;;;18.83;16.83;;;20.30;79.20;;;;;;5076397;28;20040;-71
2021/08/21 09:14:31;;;;;;;15.32;13.73;;;20.30;79.10;;;;;;5076731;28;20044;-71
2021/08/21 09:17:18;;;;;;;17.13;14.43;;;20.30;79.10;;;;;;5076426;28;20036;-71
2021/08/21 09:19:45;;;;;;;16.25;14.43;;;20.30;79.10;;;;;;5076820;28;20131;-70
2021/08/21 09:22:12;;;;;;;16.67;14.80;;;20.30;79.30;;;;;;5076921;28;20048;-71
2021/08/21 09:24:39;;;;;;;15.45;13.85;;;20.30;79.30;;;;;;5076849;28;20127;-73
2021/08/21 09:27:25;;;;;;;21.33;17.77;;;20.30;79.40;;;;;;5076255;28;20308;-73
2021/08/21 09:30:13;;;;;;;24.17;19.27;;;20.30;79.20;;;;;;5076474;28;20040;-73
2021/08/21 09:32:41;;;;;;;22.80;20.30;;;20.30;79.10;;;;;;5075512;28;20050;-73
2021/08/21 09:35:12;;;;;;;24.20;20.73;;;20.30;79.00;;;;;;5076607;28;20091;-73
2021/08/21 09:37:48;;;;;;;25.80;20.88;;;20.40;78.90;;;;;;5076187;28;20052;-72
2021/08/21 09:40:20;;;;;;;26.85;21.20;;;20.40;78.80;;;;;;5075347;28;20584;-73
2021/08/21 09:42:46;;;;;;;23.42;20.90;;;20.40;78.70;;;;;;5075926;28;20044;-74
2021/08/21 09:45:12;;;;;;;26.30;20.73;;;20.40;78.50;;;;;;5075755;28;20460;-74
2021/08/21 09:47:39;;;;;;;27.15;21.75;;;20.40;78.50;;;;;;5075549;28;20044;-75
2021/08/21 09:50:17;;;;;;;27.63;22.25;;;20.40;78.30;;;;;;5075707;28;20044;-74
2021/08/21 09:52:45;;;;;;;28.80;20.08;;;20.40;78.10;;;;;;5075779;28;20081;-74
2021/08/21 09:55:20;;;;;;;23.33;18.60;;;20.40;77.70;;;;;;5075247;28;20367;-74
2021/08/21 09:57:58;;;;;;;20.88;17.13;;;20.40;77.40;;;;;;5075577;28;20044;-75
2021/08/21 10:00:25;;;;;;;20.88;17.85;;;20.40;76.90;;;;;;5075289;28;20498;-73
2021/08/21 10:02:51;;;;;;;19.45;16.70;;;20.40;76.70;;;;;;5074581;28;20120;-75
2021/08/21 10:05:20;;;;;;;23.27;18.48;;;20.50;76.70;;;;;;5075434;28;20044;-74
2021/08/21 10:07:49;;;;;;;19.65;16.88;;;20.50;76.40;;;;;;5075206;28;20040;-74
2021/08/21 10:10:17;;;;;;;24.92;17.70;;;20.50;76.40;;;;;;5075473;28;20048;-71
2021/08/21 10:12:45;;;;;;;18.75;15.90;;;20.50;76.70;;;;;;5075263;28;20094;-70
2021/08/21 10:15:13;;;;;;;21.45;16.20;;;20.50;77.00;;;;;;5076072;28;20040;-72
2021/08/21 10:17:42;;;;;;;18.25;14.98;;;20.50;77.40;;;;;;5075404;28;20045;-71
2021/08/21 10:20:10;;;;;;;17.45;14.00;;;20.50;77.50;;;;;;5079150;28;20079;-72
2021/08/21 10:22:38;;;;;;;25.33;14.63;;;20.50;77.60;;;;;;5094511;28;20051;-71
2021/08/21 10:25:06;;;;;;;20.05;13.98;;;20.50;77.80;;;;;;5089477;28;20062;-73
2021/08/21 10:27:50;;;;;;;22.05;13.57;;;20.60;78.10;;;;;;5075246;28;20120;-72
2021/08/21 10:30:20;;;;;;;26.58;14.27;;;20.60;78.00;;;;;;5075492;28;20102;-72
2021/08/21 10:32:57;;;;;;;19.00;14.02;;;20.60;77.30;;;;;;5075334;28;20466;-73
2021/08/21 10:35:42;;;;;;;21.50;13.00;;;20.60;77.20;;;;;;5075095;28;20048;-73
2021/08/21 10:38:31;;;;;;;21.90;12.55;;;20.60;77.50;;;;;;5088689;28;20111;-75
2021/08/21 10:41:26;;;;;;;21.65;13.57;;;20.70;77.70;;;;;;5093172;28;20110;-73
2021/08/21 10:43:57;;;;;;;18.52;12.27;;;20.70;77.80;;;;;;5065859;28;20048;-72
2021/08/21 10:46:29;;;;;;;17.15;11.88;;;20.70;77.80;;;;;;5075275;28;20041;-73
2021/08/21 10:48:59;;;;;;;17.63;11.68;;;20.70;77.80;;;;;;5075687;28;20185;-73
2021/08/21 10:51:39;;;;;;;15.25;10.82;;;20.60;77.70;;;;;;5075106;28;20484;-74
2021/08/21 10:54:26;;;;;;;15.82;10.73;;;20.70;77.70;;;;;;5075624;28;20051;-73
2021/08/21 10:56:54;;;;;;;19.17;11.10;;;20.70;77.70;;;;;;5076783;28;20467;-73
2021/08/21 10:59:45;;;;;;;12.25;9.80;;;20.70;77.70;;;;;;5095838;28;20081;-72
2021/08/21 11:02:26;;;;;;;14.70;10.35;;;20.70;77.60;;;;;;5095078;28;20040;-73
2021/08/21 11:04:52;;;;;;;13.15;10.27;;;20.70;77.60;;;;;;5095354;28;20047;-75
2021/08/21 11:07:31;;;;;;;14.48;9.55;;;20.70;77.70;;;;;;5095358;28;20123;-74
2021/08/21 11:10:15;;;;;;;11.02;9.80;;;20.70;77.60;;;;;;5095283;28;20040;-73
2021/08/21 11:12:42;;;;;;;14.57;10.13;;;20.70;77.50;;;;;;5095226;28;20119;-74
2021/08/21 11:15:19;;;;;;;11.35;9.20;;;20.70;77.60;;;;;;5095107;28;20108;-73
2021/08/21 11:17:45;;;;;;;12.77;9.18;;;20.70;77.50;;;;;;5085754;28;20063;-73
2021/08/21 11:20:27;;;;;;;10.93;9.80;;;20.70;77.50;;;;;;5075028;28;20079;-74
2021/08/21 11:23:08;;;;;;;10.40;8.35;;;20.80;77.50;;;;;;5075084;28;20052;-73
2021/08/21 11:25:39;;;;;;;12.10;8.52;;;20.80;77.50;;;;;;5074512;28;20087;-73
2021/08/21 11:28:20;;;;;;;10.15;8.43;;;20.70;77.50;;;;;;5076700;28;20044;-75
2021/08/21 11:31:06;;;;;;;13.18;8.57;;;20.80;77.50;;;;;;5078591;28;20633;-74
2021/08/21 11:33:33;;;;;;;10.55;8.57;;;20.80;77.40;;;;;;5078551;28;20124;-74
2021/08/21 11:36:00;;;;;;;9.88;8.32;;;20.80;77.40;;;;;;5078392;28;20051;-73
2021/08/21 11:38:30;;;;;;;11.48;7.95;;;20.80;77.40;;;;;;5078191;28;20420;-73
2021/08/21 11:40:58;;;;;;;8.98;7.90;;;20.80;77.30;;;;;;5078608;28;20111;-73
2021/08/21 11:43:30;;;;;;;9.23;7.38;;;20.80;77.30;;;;;;5078669;28;20048;-74
2021/08/21 11:45:57;;;;;;;8.43;7.53;;;20.80;77.20;;;;;;5079105;28;20047;-74
2021/08/21 11:48:31;;;;;;;12.85;7.75;;;20.80;77.20;;;;;;5092254;28;20059;-74
2021/08/21 11:50:59;;;;;;;8.73;7.82;;;20.80;77.10;;;;;;5098384;28;20044;-73
2021/08/21 11:53:30;;;;;;;8.88;7.35;;;20.80;77.10;;;;;;5097854;28;20048;-74
2021/08/21 11:55:58;;;;;;;7.15;6.47;;;20.80;77.00;;;;;;5098398;28;20051;-73
2021/08/21 11:58:32;;;;;;;8.60;6.07;;;20.80;77.00;;;;;;5089963;28;20064;-80
2021/08/21 12:01:03;;;;;;;7.75;5.50;;;20.90;76.90;;;;;;5064178;28;20346;-77
2021/08/21 12:06:21;;;;;;;6.28;5.20;;;20.90;73.30;;;;;;5097645;28;20759;-77
2021/08/21 12:08:47;;;;;;;6.05;5.30;;;20.90;73.50;;;;;;5094546;28;20052;-76
2021/08/21 12:11:13;;;;;;;4.20;3.70;;;20.90;73.40;;;;;;5077726;28;20093;-72
2021/08/21 12:13:40;;;;;;;5.03;4.13;;;20.90;73.00;;;;;;5077768;28;20048;-75
2021/08/21 12:16:11;;;;;;;5.65;5.15;;;20.80;72.90;;;;;;5077972;28;20068;-74
2021/08/21 12:18:39;;;;;;;7.00;5.72;;;20.80;73.00;;;;;;5085190;28;20089;-75
2021/08/21 12:21:07;;;;;;;5.68;5.13;;;20.80;73.10;;;;;;5097532;28;20451;-76
2021/08/21 12:23:35;;;;;;;5.18;4.40;;;20.80;73.40;;;;;;5086207;28;20040;-76
2021/08/21 12:26:03;;;;;;;5.15;4.22;;;20.80;73.60;;;;;;5077346;28;20041;-76
2021/08/21 12:28:37;;;;;;;4.85;4.07;;;20.80;73.90;;;;;;5059919;28;20387;-75
2021/08/21 12:31:08;;;;;;;5.65;4.53;;;20.80;74.00;;;;;;5077467;28;20041;-76
2021/08/21 12:33:36;;;;;;;4.70;3.90;;;20.80;74.20;;;;;;5077624;28;20320;-75
2021/08/21 12:36:13;;;;;;;4.43;3.90;;;20.80;74.30;;;;;;5090805;28;20036;-73
2021/08/21 12:38:58;;;;;;;5.75;4.07;;;20.90;74.50;;;;;;5097409;28;20107;-75
2021/08/21 12:41:24;;;;;;;4.47;4.07;;;20.80;74.70;;;;;;5097530;28;20351;-73
2021/08/21 12:44:20;;;;;;;6.82;3.92;;;20.80;74.70;;;;;;5097671;28;20111;-74
2021/08/21 12:46:51;;;;;;;4.18;3.65;;;20.90;74.80;;;;;;5097121;28;20321;-74